Ada, OH

1:59 PM EDT on September 16, 2014 (GMT -0400)
Ada | Change Station
CLOSE
Current Station
Personal Weather Station
Location: Ada, OH
Elevation: 912 ft
Nearby Weather Stations

Elev 912 ft 40.82 °N, 83.86 °W | Updated 4 seconds ago

Overcast
Overcast
61.9 °F
Feels Like 61.9 °F
N
4.0
Wind Variable Wind from North
Gusts 8.0 mph

Today
High -- | Low -- °F
--% Chance of Precip.
Yesterday
High -- | Low -- °F
Precip. -- in
7:16 AM 7:42 PM
Last Quarter, 43% visible
Pressure 30.15 in
Visibility 10.0 miles
Clouds Mostly Cloudy 2900 ft
Mostly Cloudy 3600 ft
Dew Point 51 °F
Humidity 68%
Rainfall 0.01 in
Snow Depth Not available.
UV 4 out of 12
Pollen 3.70 out of 12
Air Quality Not available.
Flu Activity Not available.
METAR KAOH 161753Z AUTO 34005KT 10SM BKN029 BKN036 17/10 A3015 RMK AO2 SLP210 T01670100 10172 20122 56010

More Conditions Fewer Conditions

Pressure 30.15 in
Visibility 10.0 miles
Clouds Mostly Cloudy 2900 ft
Mostly Cloudy 3600 ft
Dew Point 51 °F
Humidity 68%
Rainfall 0.01 in
Snow Depth Not available.
UV 4 out of 12
Pollen 3.70 out of 12
Air Quality Not available.
Flu Activity Not available.
METAR KAOH 161753Z AUTO 34005KT 10SM BKN029 BKN036 17/10 A3015 RMK AO2 SLP210 T01670100 10172 20122 56010

More Conditions Fewer Conditions

10-Day Weather Forecast

Almanac

Astronomy

Sep. 16, 2014 Rise Set
Actual Time 7:16 AM EDT 7:42 PM EDT
Civil Twilight 6:49 AM EDT 8:09 PM EDT
Nautical Twilight 6:16 AM EDT 8:42 PM EDT
Astronomical Twilight 5:43 AM EDT 9:15 PM EDT
Moon 12:24 AM EDT 3:06 PM EDT
Length of Visible Light 13h 20m
Length of Day
12h 25m
Tomorrow will be 2m 40s shorter.
Last Quarter, 43% of the Moon is Illuminated
Today
Last Quarter
Sep 24
New
Oct 1
First Quarter
Oct 8
Full
Oct 15
Last Quarter

Today's Extremes

State Highs State Lows

Community

WunderPhotos

Upload Photos

1,753,843 photos uploaded!

Nearby

Snow Depth

Station Depth Elevation
No new snow has been reported.

Earthquake Activity

City Distance Mag. Time & Date
No recent earthquake activity has been reported nearby.
Minimum magnitude displayed is 2.5.

Coastal Water Temperatures

Place Temperature
No Stations Reporting

Nearby Weather Stations